Time;durP1;ratioP1;P1;durP2;ratioP2;P2;SDS_P1;SDS_P2;PMS_P1;PMS_P2;Temp;Humidity;BMP_temperature;BMP_pressure;BME280_temperature;BME280_humidity;BME280_pressure;Samples;Min_cycle;Max_cycle;Signal;HPM_P1;HPM_P2
2023/08/06 00:08:08;;;;;;;14.02;7.60;;;14.90;99.90;;;;;;20664528;28;20042;-43
2023/08/06 00:18:08;;;;;;;10.73;7.82;;;14.90;99.90;;;;;;20665644;28;20065;-43
2023/08/06 00:28:09;;;;;;;11.90;8.45;;;14.90;99.90;;;;;;20668337;28;20069;-42
2023/08/06 00:38:09;;;;;;;12.63;8.95;;;15.00;99.90;;;;;;20663671;28;20061;-42
2023/08/06 00:48:10;;;;;;;14.20;9.18;;;15.00;99.90;;;;;;20664242;28;20053;-42
2023/08/06 00:58:12;;;;;;;10.80;7.95;;;14.90;99.90;;;;;;20662242;28;20101;-42
2023/08/06 01:08:22;;;;;;;12.45;9.00;;;14.90;99.90;;;;;;20669588;28;20097;-42
2023/08/06 01:18:22;;;;;;;13.38;9.20;;;14.90;99.90;;;;;;20684004;28;20769;-42
2023/08/06 01:28:31;;;;;;;13.63;9.52;;;14.90;99.90;;;;;;20675499;28;20424;-42
2023/08/06 01:38:32;;;;;;;11.85;7.60;;;14.90;99.90;;;;;;20673928;28;20073;-42
2023/08/06 01:48:33;;;;;;;12.07;9.02;;;14.90;99.90;;;;;;20672129;28;20046;-43
2023/08/06 01:58:33;;;;;;;12.57;8.82;;;14.90;99.90;;;;;;20672030;28;20038;-43
2023/08/06 02:08:34;;;;;;;16.33;10.55;;;14.90;99.90;;;;;;20681530;28;20393;-42
2023/08/06 02:18:34;;;;;;;15.55;10.27;;;14.80;99.90;;;;;;20674137;28;20041;-42
2023/08/06 02:28:35;;;;;;;14.82;9.30;;;14.90;99.90;;;;;;20676398;28;20429;-42
2023/08/06 02:38:39;;;;;;;17.70;11.30;;;14.80;99.90;;;;;;21467907;23;20099;-80
2023/08/06 02:48:39;;;;;;;17.25;11.30;;;14.80;99.90;;;;;;20797588;28;20478;-80
2023/08/06 02:58:40;;;;;;;16.88;11.25;;;14.80;99.90;;;;;;20773942;28;20682;-79
2023/08/06 03:08:40;;;;;;;17.80;12.73;;;14.80;99.90;;;;;;20775336;28;20098;-80
2023/08/06 03:18:41;;;;;;;20.80;12.70;;;14.80;99.90;;;;;;20780587;28;20597;-80
2023/08/06 03:28:41;;;;;;;21.55;14.18;;;14.80;99.90;;;;;;20782108;28;20038;-81
2023/08/06 03:38:42;;;;;;;25.70;16.35;;;14.80;99.90;;;;;;20774509;28;20060;-79
2023/08/06 03:48:42;;;;;;;24.88;16.10;;;14.80;99.90;;;;;;20771302;28;20052;-79
2023/08/06 03:58:43;;;;;;;25.50;16.85;;;14.80;99.90;;;;;;20759745;28;20034;-79
2023/08/06 04:08:44;;;;;;;29.20;17.07;;;14.80;99.90;;;;;;20768772;28;20095;-79
2023/08/06 04:18:45;;;;;;;29.37;17.57;;;14.80;99.90;;;;;;20787786;28;20175;-79
2023/08/06 04:28:46;;;;;;;22.08;13.65;;;14.80;99.90;;;;;;20779986;28;20448;-81
2023/08/06 04:38:47;;;;;;;19.37;12.47;;;14.80;99.90;;;;;;20780817;28;20535;-80
2023/08/06 04:48:47;;;;;;;16.45;11.02;;;14.80;99.90;;;;;;20785938;28;20068;-79
2023/08/06 04:58:48;;;;;;;11.63;7.85;;;14.70;99.90;;;;;;20769944;28;20042;-81
2023/08/06 05:08:49;;;;;;;12.20;6.90;;;14.70;99.90;;;;;;20764547;28;20041;-80
2023/08/06 05:18:49;;;;;;;9.23;5.10;;;14.80;99.90;;;;;;20771720;28;20447;-80
2023/08/06 05:28:50;;;;;;;5.60;3.40;;;14.70;99.90;;;;;;20768117;28;20037;-80
2023/08/06 05:38:50;;;;;;;7.28;3.88;;;14.60;99.90;;;;;;20772670;28;20045;-80
2023/08/06 05:48:51;;;;;;;4.63;3.25;;;14.60;99.90;;;;;;20798049;28;20127;-80
2023/08/06 05:58:53;;;;;;;4.88;3.50;;;14.60;99.90;;;;;;20783775;28;20103;-80
2023/08/06 06:08:53;;;;;;;6.25;4.10;;;14.60;99.90;;;;;;20801612;28;20389;-80
2023/08/06 06:18:57;;;;;;;7.05;3.95;;;14.40;99.90;;;;;;20788546;28;20676;-81
2023/08/06 06:28:57;;;;;;;7.18;5.22;;;14.40;99.90;;;;;;20747056;28;20880;-81
2023/08/06 06:38:58;;;;;;;7.32;5.88;;;14.40;99.90;;;;;;20772658;28;20527;-81
2023/08/06 06:48:58;;;;;;;9.18;6.80;;;14.50;99.90;;;;;;20764401;28;20051;-80
2023/08/06 06:59:00;;;;;;;10.82;7.95;;;14.60;99.90;;;;;;20769400;28;20463;-82
2023/08/06 07:09:00;;;;;;;13.10;9.32;;;14.60;99.90;;;;;;20760732;28;20135;-80
2023/08/06 07:19:01;;;;;;;12.25;7.88;;;14.80;99.90;;;;;;20769985;28;20057;-81
2023/08/06 07:29:01;;;;;;;9.70;6.90;;;14.90;99.90;;;;;;20764743;28;20048;-81
2023/08/06 07:39:06;;;;;;;10.75;6.85;;;14.70;99.90;;;;;;20745762;28;20033;-83
2023/08/06 07:49:06;;;;;;;11.40;8.38;;;14.80;99.90;;;;;;20752374;28;20041;-79
2023/08/06 07:59:07;;;;;;;11.98;8.95;;;14.90;99.90;;;;;;20722053;28;20054;-80
2023/08/06 08:09:07;;;;;;;13.90;8.52;;;15.00;99.90;;;;;;20741239;28;20034;-79
2023/08/06 08:19:08;;;;;;;13.88;8.38;;;15.00;99.90;;;;;;20743136;28;20046;-79
2023/08/06 08:29:08;;;;;;;14.25;8.55;;;15.10;99.90;;;;;;20743026;28;20048;-84
2023/08/06 08:39:09;;;;;;;12.77;6.88;;;15.20;99.90;;;;;;20737996;28;20500;-82
2023/08/06 08:49:11;;;;;;;12.25;7.00;;;15.20;99.90;;;;;;20759539;28;20420;-83
2023/08/06 08:59:12;;;;;;;11.02;5.97;;;15.20;99.90;;;;;;20770187;28;20053;-85
2023/08/06 09:09:16;;;;;;;13.60;5.80;;;15.40;99.90;;;;;;20770300;28;20385;-85
2023/08/06 09:19:17;;;;;;;10.48;5.82;;;15.40;99.90;;;;;;20761622;28;20038;-86
2023/08/06 09:29:18;;;;;;;11.52;5.72;;;15.50;99.90;;;;;;20753649;28;20068;-84
2023/08/06 09:39:20;;;;;;;12.15;6.13;;;15.60;99.90;;;;;;20750200;28;20057;-85
2023/08/06 09:49:32;;;;;;;9.60;5.88;;;15.50;99.90;;;;;;20736584;28;20513;-82
2023/08/06 09:59:33;;;;;;;10.95;5.18;;;15.40;99.90;;;;;;20771572;28;20142;-83
2023/08/06 10:09:34;;;;;;;10.10;5.15;;;15.40;99.90;;;;;;20783424;28;20036;-80
2023/08/06 10:19:36;;;;;;;5.77;3.43;;;15.60;99.90;;;;;;20773363;28;20033;-81
2023/08/06 10:29:37;;;;;;;7.55;2.67;;;15.60;99.90;;;;;;20774455;28;20471;-83
2023/08/06 10:39:49;;;;;;;4.97;2.00;;;15.60;99.90;;;;;;20770955;28;20046;-81
2023/08/06 10:49:50;;;;;;;5.35;2.35;;;15.60;99.90;;;;;;20771739;28;20038;-81
2023/08/06 10:59:51;;;;;;;6.13;2.45;;;15.60;99.90;;;;;;20739638;28;20091;-84
2023/08/06 11:09:52;;;;;;;4.47;1.75;;;15.70;99.90;;;;;;20776801;28;20033;-84
2023/08/06 11:19:54;;;;;;;7.35;2.95;;;15.70;99.90;;;;;;20765936;28;20125;-83
2023/08/06 11:29:55;;;;;;;5.35;1.92;;;15.70;99.90;;;;;;20766141;28;20053;-84
2023/08/06 11:39:56;;;;;;;3.55;1.67;;;15.60;99.90;;;;;;20763413;28;20129;-84
2023/08/06 11:49:56;;;;;;;4.55;2.40;;;15.50;99.90;;;;;;20757803;28;20033;-83
2023/08/06 11:59:57;;;;;;;6.43;2.00;;;15.60;99.90;;;;;;20772659;28;20114;-84
2023/08/06 12:10:00;;;;;;;6.68;2.00;;;15.40;99.90;;;;;;20759878;28;20041;-83
2023/08/06 12:20:00;;;;;;;2.13;1.30;;;15.50;99.90;;;;;;20759900;28;20044;-83
2023/08/06 12:30:03;;;;;;;4.97;1.80;;;15.60;99.90;;;;;;20735341;28;20050;-83
2023/08/06 12:40:04;;;;;;;3.83;1.80;;;15.80;99.90;;;;;;20769679;28;20033;-83
2023/08/06 12:50:05;;;;;;;5.90;2.13;;;15.90;99.90;;;;;;20859774;28;20059;-83
2023/08/06 13:00:07;;;;;;;4.00;1.70;;;16.00;99.90;;;;;;20895209;28;20033;-83
2023/08/06 13:10:07;;;;;;;5.55;2.00;;;16.00;99.90;;;;;;20822884;28;20121;-83
2023/08/06 13:20:08;;;;;;;2.83;1.80;;;16.00;99.90;;;;;;20814334;28;20049;-79
2023/08/06 13:30:09;;;;;;;5.15;2.22;;;16.00;99.90;;;;;;20868245;28;20043;-80
2023/08/06 13:40:10;;;;;;;3.63;2.15;;;16.10;99.90;;;;;;20789181;28;20913;-80
2023/08/06 13:50:11;;;;;;;6.43;1.80;;;16.10;99.90;;;;;;20757538;28;20083;-80
2023/08/06 14:00:12;;;;;;;5.20;1.92;;;16.00;99.90;;;;;;20753427;28;20083;-80
2023/08/06 14:10:13;;;;;;;4.47;2.20;;;15.90;99.90;;;;;;20757376;28;20128;-80
2023/08/06 14:20:14;;;;;;;3.13;1.83;;;15.90;99.90;;;;;;20754338;28;20056;-81
2023/08/06 14:30:14;;;;;;;9.18;1.50;;;15.80;99.90;;;;;;20763089;28;20088;-78
2023/08/06 14:40:15;;;;;;;8.57;1.10;;;15.70;99.90;;;;;;20773544;28;20069;-77
2023/08/06 14:50:15;;;;;;;6.37;0.90;;;15.40;99.90;;;;;;20769795;28;20821;-80
2023/08/06 15:00:16;;;;;;;3.87;0.50;;;15.20;99.90;;;;;;20761961;28;20463;-81
2023/08/06 15:10:17;;;;;;;12.80;2.25;;;15.10;99.90;;;;;;20769190;28;20042;-80
2023/08/06 15:20:17;;;;;;;4.65;0.73;;;15.10;99.90;;;;;;20756539;28;20045;-76
2023/08/06 15:30:19;;;;;;;5.20;0.70;;;14.80;99.90;;;;;;20762616;28;20038;-77
2023/08/06 15:40:20;;;;;;;6.53;1.10;;;14.70;99.90;;;;;;20755912;28;20095;-76
2023/08/06 15:50:20;;;;;;;7.80;1.80;;;14.80;99.90;;;;;;20765875;28;20037;-75
2023/08/06 16:00:21;;;;;;;6.57;1.00;;;14.70;99.90;;;;;;20769667;28;20041;-76
2023/08/06 16:10:22;;;;;;;6.87;1.43;;;14.80;99.90;;;;;;20783930;28;20029;-75
2023/08/06 16:20:22;;;;;;;9.13;1.55;;;14.80;99.90;;;;;;20732657;28;20460;-76
2023/08/06 16:30:23;;;;;;;8.35;1.35;;;15.00;99.90;;;;;;20698353;28;20061;-80
2023/08/06 16:40:24;;;;;;;8.70;1.45;;;15.10;99.90;;;;;;20768404;28;20459;-77
2023/08/06 16:50:25;;;;;;;11.43;2.63;;;15.20;98.10;;;;;;20764037;28;20410;-77
2023/08/06 17:00:27;;;;;;;5.65;1.17;;;15.10;76.80;;;;;;20752089;28;20083;-79
2023/08/06 17:10:30;;;;;;;9.02;2.13;;;15.10;83.80;;;;;;20772817;28;20480;-76
2023/08/06 17:20:31;;;;;;;13.27;1.60;;;15.20;84.60;;;;;;20760842;28;20049;-77
2023/08/06 17:30:31;;;;;;;8.70;1.77;;;15.30;55.40;;;;;;20759878;28;20052;-78
2023/08/06 17:40:34;;;;;;;5.93;1.00;;;15.30;22.40;;;;;;20755267;28;20048;-82
2023/08/06 17:50:35;;;;;;;5.00;1.00;;;15.20;2.00;;;;;;20758476;28;20064;-79
2023/08/06 18:00:35;;;;;;;9.05;1.00;;;15.20;1.00;;;;;;20779117;28;20037;-81
2023/08/06 18:10:36;;;;;;;8.13;1.00;;;14.90;49.50;;;;;;20771614;28;20033;-81
2023/08/06 18:20:37;;;;;;;7.05;1.17;;;14.80;76.40;;;;;;20772460;28;20456;-81
2023/08/06 18:30:39;;;;;;;3.53;0.80;;;14.70;99.90;;;;;;20785631;28;20042;-81
2023/08/06 18:40:40;;;;;;;8.50;0.90;;;14.60;99.90;;;;;;20757939;28;21372;-81
2023/08/06 18:50:43;;;;;;;7.47;1.30;;;14.60;99.90;;;;;;20767672;28;20038;-81
2023/08/06 19:00:43;;;;;;;6.20;1.38;;;14.60;99.90;;;;;;20775927;28;20068;-83
2023/08/06 19:10:44;;;;;;;8.73;1.40;;;14.40;99.90;;;;;;20744659;28;20037;-80
2023/08/06 19:20:45;;;;;;;9.80;1.73;;;14.30;99.90;;;;;;20761863;28;20103;-80
2023/08/06 19:30:49;;;;;;;9.35;2.13;;;14.30;99.90;;;;;;20757746;28;20042;-80
2023/08/06 19:40:51;;;;;;;11.18;1.20;;;14.20;99.90;;;;;;20758769;28;20057;-80
2023/08/06 19:50:53;;;;;;;8.90;1.73;;;14.20;99.90;;;;;;20776883;28;20076;-80
2023/08/06 20:00:57;;;;;;;7.57;1.15;;;14.20;99.90;;;;;;20776636;28;20037;-80
2023/08/06 20:10:59;;;;;;;7.78;1.30;;;14.10;99.90;;;;;;20759372;28;20148;-80
2023/08/06 20:21:00;;;;;;;9.27;1.40;;;14.20;99.90;;;;;;20766827;28;20041;-80
2023/08/06 20:31:00;;;;;;;7.43;1.40;;;14.20;99.90;;;;;;20757209;28;20041;-79
2023/08/06 20:41:01;;;;;;;6.53;1.30;;;14.10;99.90;;;;;;20760305;28;20073;-80
2023/08/06 20:51:02;;;;;;;6.63;1.10;;;14.10;99.90;;;;;;20754079;28;20043;-80
2023/08/06 21:01:02;;;;;;;6.45;2.15;;;14.00;99.90;;;;;;20746100;28;20069;-81
2023/08/06 21:11:03;;;;;;;5.13;0.90;;;14.00;99.90;;;;;;20758384;28;20456;-77
2023/08/06 21:21:08;;;;;;;7.47;1.10;;;13.90;99.90;;;;;;20764417;28;20531;-80
2023/08/06 21:31:09;;;;;;;8.40;1.10;;;13.90;99.90;;;;;;20792593;28;20069;-80
2023/08/06 21:41:11;;;;;;;6.13;1.00;;;13.90;99.90;;;;;;20774779;28;20501;-80
2023/08/06 21:51:21;;;;;;;7.80;1.30;;;13.80;99.90;;;;;;20808808;28;20033;-80
2023/08/06 22:01:21;;;;;;;5.53;1.25;;;13.80;99.90;;;;;;20783201;28;20033;-80
2023/08/06 22:11:22;;;;;;;8.10;0.90;;;13.80;99.90;;;;;;20773186;28;20551;-80
2023/08/06 22:21:24;;;;;;;6.25;1.00;;;13.90;99.90;;;;;;20763629;28;20056;-80
2023/08/06 22:31:24;;;;;;;6.65;1.45;;;13.90;99.90;;;;;;20766364;28;20037;-80
2023/08/06 22:41:25;;;;;;;10.15;1.30;;;13.90;82.80;;;;;;20784825;28;20914;-82
2023/08/06 22:51:26;;;;;;;8.10;1.80;;;14.00;76.10;;;;;;20788215;28;20044;-81
2023/08/06 23:01:26;;;;;;;6.80;1.58;;;14.10;99.90;;;;;;20787169;28;20557;-80
2023/08/06 23:11:27;;;;;;;9.05;1.70;;;14.20;99.90;;;;;;20775166;28;20041;-81
2023/08/06 23:21:28;;;;;;;7.60;1.52;;;14.10;96.50;;;;;;20784794;28;20054;-82
2023/08/06 23:31:30;;;;;;;8.88;1.70;;;14.00;99.90;;;;;;20773122;28;20825;-82
2023/08/06 23:41:30;;;;;;;11.25;2.03;;;14.20;94.60;;;;;;20780586;28;20076;-82
2023/08/06 23:51:31;;;;;;;8.68;2.03;;;14.10;99.90;;;;;;20775324;28;20033;-80
